Terminal Aerodrome Forecast
Issued by NWS Grand Forks, ND

Home | Current Version | Previous Version | Graphics & Text | Print | Product List | Glossary On
Versions: 1 2 3 4 5 6 7 8 9 10 11 12 13 14 15 16 17
000
FTUS43 KFGF 211734 AAA
TAFGFK
TAF AMD
KGFK 211734Z 2118/2218 25011G20KT P6SM FEW030 BKN250
     FM212200 26013KT P6SM BKN080
     FM220600 26010KT P6SM SCT090
     FM221500 23010KT P6SM SKC=

USA.gov is the U.S. government's official web portal to all federal, state and local government web resources and services.